sensor_id;sensor_type;location;lat;lon;timestamp;pressure;altitude;pressure_sealevel;temperature;humidity
30875;BME280;17581;43.222;27.924;2024-02-16T00:00:58;101238.78;;;9.25;68.33
30875;BME280;17581;43.222;27.924;2024-02-16T00:03:23;101294.94;;;9.55;68.21
30875;BME280;17581;43.222;27.924;2024-02-16T00:05:49;101291.41;;;9.54;68.69
30875;BME280;17581;43.222;27.924;2024-02-16T00:08:18;101275.56;;;9.37;68.43
30875;BME280;17581;43.222;27.924;2024-02-16T00:10:43;101253.28;;;9.22;69.08
30875;BME280;17581;43.222;27.924;2024-02-16T00:13:09;101225.63;;;9.08;68.78
30875;BME280;17581;43.222;27.924;2024-02-16T00:15:35;101257.22;;;9.17;69.03
30875;BME280;17581;43.222;27.924;2024-02-16T00:18:00;101243.50;;;9.21;69.15
30875;BME280;17581;43.222;27.924;2024-02-16T00:20:27;101199.03;;;8.91;69.05
30875;BME280;17581;43.222;27.924;2024-02-16T00:22:54;101128.56;;;8.48;69.41
30875;BME280;17581;43.222;27.924;2024-02-16T00:25:20;101200.31;;;8.85;69.28
30875;BME280;17581;43.222;27.924;2024-02-16T00:27:46;101258.19;;;9.16;69.61
30875;BME280;17581;43.222;27.924;2024-02-16T00:30:12;101274.50;;;9.40;69.91
30875;BME280;17581;43.222;27.924;2024-02-16T00:32:37;101211.44;;;9.06;70.00
30875;BME280;17581;43.222;27.924;2024-02-16T00:35:03;101271.59;;;9.43;69.77
30875;BME280;17581;43.222;27.924;2024-02-16T00:37:29;101216.78;;;9.20;69.28
30875;BME280;17581;43.222;27.924;2024-02-16T00:39:54;101244.22;;;9.38;69.25
30875;BME280;17581;43.222;27.924;2024-02-16T00:42:21;101282.50;;;9.54;69.40
30875;BME280;17581;43.222;27.924;2024-02-16T00:44:51;101259.03;;;9.43;69.41
30875;BME280;17581;43.222;27.924;2024-02-16T00:47:17;101277.75;;;9.57;69.23
30875;BME280;17581;43.222;27.924;2024-02-16T00:49:43;101263.25;;;9.47;69.02
30875;BME280;17581;43.222;27.924;2024-02-16T00:52:08;101254.94;;;9.38;69.10
30875;BME280;17581;43.222;27.924;2024-02-16T00:54:36;101258.50;;;9.38;69.78
30875;BME280;17581;43.222;27.924;2024-02-16T00:57:01;101234.94;;;9.29;69.57
30875;BME280;17581;43.222;27.924;2024-02-16T00:59:30;101263.28;;;9.33;69.63
30875;BME280;17581;43.222;27.924;2024-02-16T01:01:56;101284.16;;;9.42;69.46
30875;BME280;17581;43.222;27.924;2024-02-16T01:04:21;101256.09;;;9.34;69.82
30875;BME280;17581;43.222;27.924;2024-02-16T01:06:48;101237.47;;;9.18;69.85
30875;BME280;17581;43.222;27.924;2024-02-16T01:09:13;101181.63;;;8.84;70.27
30875;BME280;17581;43.222;27.924;2024-02-16T01:11:42;101261.69;;;9.30;70.33
30875;BME280;17581;43.222;27.924;2024-02-16T01:14:08;101240.53;;;9.26;70.42
30875;BME280;17581;43.222;27.924;2024-02-16T01:16:34;101233.56;;;9.36;70.36
30875;BME280;17581;43.222;27.924;2024-02-16T01:19:01;101258.22;;;9.55;69.95
30875;BME280;17581;43.222;27.924;2024-02-16T01:21:27;101239.72;;;9.38;70.29
30875;BME280;17581;43.222;27.924;2024-02-16T01:23:52;101257.56;;;9.52;70.29
30875;BME280;17581;43.222;27.924;2024-02-16T01:26:18;101196.47;;;9.16;70.42
30875;BME280;17581;43.222;27.924;2024-02-16T01:28:44;101228.25;;;9.22;70.24
30875;BME280;17581;43.222;27.924;2024-02-16T01:31:09;101261.59;;;9.32;70.79
30875;BME280;17581;43.222;27.924;2024-02-16T01:33:36;101270.19;;;9.37;71.26
30875;BME280;17581;43.222;27.924;2024-02-16T01:36:05;101270.19;;;9.37;71.04
30875;BME280;17581;43.222;27.924;2024-02-16T01:38:30;101236.16;;;9.11;71.65
30875;BME280;17581;43.222;27.924;2024-02-16T01:40:58;101265.31;;;9.29;71.62
30875;BME280;17581;43.222;27.924;2024-02-16T01:43:24;101243.56;;;9.07;71.66
30875;BME280;17581;43.222;27.924;2024-02-16T01:45:50;101227.75;;;9.03;72.05
30875;BME280;17581;43.222;27.924;2024-02-16T01:48:15;101253.97;;;9.12;72.00
30875;BME280;17581;43.222;27.924;2024-02-16T01:50:45;101247.34;;;9.17;71.90
30875;BME280;17581;43.222;27.924;2024-02-16T01:53:14;101280.00;;;9.24;72.33
30875;BME280;17581;43.222;27.924;2024-02-16T01:55:46;101215.03;;;8.92;72.11
30875;BME280;17581;43.222;27.924;2024-02-16T01:58:12;101156.19;;;8.62;72.10
30875;BME280;17581;43.222;27.924;2024-02-16T02:00:39;101255.16;;;9.08;72.34
30875;BME280;17581;43.222;27.924;2024-02-16T02:03:06;101204.44;;;8.77;72.35
30875;BME280;17581;43.222;27.924;2024-02-16T02:05:32;101279.00;;;9.12;72.56
30875;BME280;17581;43.222;27.924;2024-02-16T02:07:58;101268.00;;;9.03;73.02
30875;BME280;17581;43.222;27.924;2024-02-16T02:10:23;101259.47;;;8.96;72.93
30875;BME280;17581;43.222;27.924;2024-02-16T02:12:49;101258.59;;;9.10;73.04
30875;BME280;17581;43.222;27.924;2024-02-16T02:15:14;101274.28;;;9.16;73.34
30875;BME280;17581;43.222;27.924;2024-02-16T02:17:40;101257.91;;;9.06;72.80
30875;BME280;17581;43.222;27.924;2024-02-16T02:20:06;101264.16;;;9.07;72.71
30875;BME280;17581;43.222;27.924;2024-02-16T02:22:39;101241.34;;;9.00;72.53
30875;BME280;17581;43.222;27.924;2024-02-16T02:25:04;101260.31;;;9.11;73.07
30875;BME280;17581;43.222;27.924;2024-02-16T02:27:30;101231.41;;;9.02;72.78
30875;BME280;17581;43.222;27.924;2024-02-16T02:29:56;101295.31;;;9.36;72.38
30875;BME280;17581;43.222;27.924;2024-02-16T02:32:21;101190.53;;;8.84;72.15
30875;BME280;17581;43.222;27.924;2024-02-16T02:34:47;101256.06;;;9.21;72.01
30875;BME280;17581;43.222;27.924;2024-02-16T02:37:13;101267.16;;;9.29;71.85
30875;BME280;17581;43.222;27.924;2024-02-16T02:39:38;101172.06;;;8.65;72.12
30875;BME280;17581;43.222;27.924;2024-02-16T02:42:04;101275.22;;;9.29;72.22
30875;BME280;17581;43.222;27.924;2024-02-16T02:44:29;101285.03;;;9.43;72.08
30875;BME280;17581;43.222;27.924;2024-02-16T02:46:56;101267.16;;;9.29;71.92
30875;BME280;17581;43.222;27.924;2024-02-16T02:49:22;101229.94;;;9.10;71.50
30875;BME280;17581;43.222;27.924;2024-02-16T02:51:47;101267.78;;;9.20;71.40
30875;BME280;17581;43.222;27.924;2024-02-16T02:54:13;101250.75;;;9.07;71.63
30875;BME280;17581;43.222;27.924;2024-02-16T02:56:38;101264.69;;;9.12;71.58
30875;BME280;17581;43.222;27.924;2024-02-16T02:59:04;101287.09;;;9.25;72.06
30875;BME280;17581;43.222;27.924;2024-02-16T03:01:31;101293.03;;;9.30;71.90
30875;BME280;17581;43.222;27.924;2024-02-16T03:03:57;101254.75;;;9.14;72.07
30875;BME280;17581;43.222;27.924;2024-02-16T03:06:23;101282.28;;;9.30;71.93
30875;BME280;17581;43.222;27.924;2024-02-16T03:08:48;101253.06;;;8.99;72.16
30875;BME280;17581;43.222;27.924;2024-02-16T03:11:14;101266.28;;;9.02;72.21
30875;BME280;17581;43.222;27.924;2024-02-16T03:13:40;101263.41;;;9.05;72.54
30875;BME280;17581;43.222;27.924;2024-02-16T03:16:05;101297.25;;;9.34;72.30
30875;BME280;17581;43.222;27.924;2024-02-16T03:18:32;101254.75;;;9.14;72.38
30875;BME280;17581;43.222;27.924;2024-02-16T03:20:57;101295.88;;;9.41;72.25
30875;BME280;17581;43.222;27.924;2024-02-16T03:23:23;101297.28;;;9.47;72.23
30875;BME280;17581;43.222;27.924;2024-02-16T03:25:49;101278.78;;;9.42;71.89
30875;BME280;17581;43.222;27.924;2024-02-16T03:28:15;101251.47;;;9.23;71.60
30875;BME280;17581;43.222;27.924;2024-02-16T03:30:41;101269.06;;;9.27;71.26
30875;BME280;17581;43.222;27.924;2024-02-16T03:33:08;101300.06;;;9.45;71.05
30875;BME280;17581;43.222;27.924;2024-02-16T03:35:34;101302.41;;;9.37;71.67
30875;BME280;17581;43.222;27.924;2024-02-16T03:37:59;101307.78;;;9.37;71.68
30875;BME280;17581;43.222;27.924;2024-02-16T03:40:25;101257.44;;;9.00;71.93
30875;BME280;17581;43.222;27.924;2024-02-16T03:42:51;101226.50;;;8.67;72.78
30875;BME280;17581;43.222;27.924;2024-02-16T03:45:17;101283.69;;;9.09;72.77
30875;BME280;17581;43.222;27.924;2024-02-16T03:47:43;101287.34;;;9.08;73.15
30875;BME280;17581;43.222;27.924;2024-02-16T03:50:09;101320.19;;;9.25;73.26
30875;BME280;17581;43.222;27.924;2024-02-16T03:52:35;101306.66;;;9.27;73.65
30875;BME280;17581;43.222;27.924;2024-02-16T03:55:00;101261.88;;;9.01;73.56
30875;BME280;17581;43.222;27.924;2024-02-16T03:57:26;101271.81;;;9.13;73.89
30875;BME280;17581;43.222;27.924;2024-02-16T03:59:51;101273.13;;;9.20;73.44
30875;BME280;17581;43.222;27.924;2024-02-16T04:02:17;101274.63;;;9.24;73.23
30875;BME280;17581;43.222;27.924;2024-02-16T04:04:44;101303.34;;;9.50;73.01
30875;BME280;17581;43.222;27.924;2024-02-16T04:07:10;101258.44;;;9.25;73.06
30875;BME280;17581;43.222;27.924;2024-02-16T04:09:35;101324.41;;;9.56;72.66
30875;BME280;17581;43.222;27.924;2024-02-16T04:12:01;101315.78;;;9.51;72.55
30875;BME280;17581;43.222;27.924;2024-02-16T04:14:28;101330.53;;;9.58;72.50
30875;BME280;17581;43.222;27.924;2024-02-16T04:16:54;101275.56;;;9.37;72.44
30875;BME280;17581;43.222;27.924;2024-02-16T04:19:24;101264.06;;;9.35;71.78
30875;BME280;17581;43.222;27.924;2024-02-16T04:21:50;101329.56;;;9.59;72.14
30875;BME280;17581;43.222;27.924;2024-02-16T04:24:16;101293.09;;;9.43;72.19
30875;BME280;17581;43.222;27.924;2024-02-16T04:26:41;101305.84;;;9.39;72.41
30875;BME280;17581;43.222;27.924;2024-02-16T04:29:07;101336.00;;;9.57;72.71
30875;BME280;17581;43.222;27.924;2024-02-16T04:31:32;101313.09;;;9.51;72.41
30875;BME280;17581;43.222;27.924;2024-02-16T04:33:58;101333.22;;;9.58;72.26
30875;BME280;17581;43.222;27.924;2024-02-16T04:36:23;101333.97;;;9.60;72.26
30875;BME280;17581;43.222;27.924;2024-02-16T04:38:49;101314.69;;;9.41;72.04
30875;BME280;17581;43.222;27.924;2024-02-16T04:41:15;101342.22;;;9.57;72.34
30875;BME280;17581;43.222;27.924;2024-02-16T04:43:41;101299.91;;;9.34;72.64
30875;BME280;17581;43.222;27.924;2024-02-16T04:46:06;101339.50;;;9.45;72.64
30875;BME280;17581;43.222;27.924;2024-02-16T04:48:32;101332.47;;;9.56;72.83
30875;BME280;17581;43.222;27.924;2024-02-16T04:50:59;101312.00;;;9.27;73.10
30875;BME280;17581;43.222;27.924;2024-02-16T04:53:24;101293.28;;;9.13;72.77
30875;BME280;17581;43.222;27.924;2024-02-16T04:55:50;101337.72;;;9.31;72.66
30875;BME280;17581;43.222;27.924;2024-02-16T04:58:16;101363.94;;;9.40;73.23
30875;BME280;17581;43.222;27.924;2024-02-16T05:00:41;101331.97;;;9.23;73.72
30875;BME280;17581;43.222;27.924;2024-02-16T05:03:07;101311.31;;;9.11;73.66
30875;BME280;17581;43.222;27.924;2024-02-16T05:05:33;101347.50;;;9.32;73.53
30875;BME280;17581;43.222;27.924;2024-02-16T05:07:58;101345.00;;;9.29;73.84
30875;BME280;17581;43.222;27.924;2024-02-16T05:10:24;101367.16;;;9.33;73.99
30875;BME280;17581;43.222;27.924;2024-02-16T05:12:49;101364.47;;;9.33;74.12
30875;BME280;17581;43.222;27.924;2024-02-16T05:15:15;101366.63;;;9.40;74.03
30875;BME280;17581;43.222;27.924;2024-02-16T05:17:42;101379.59;;;9.48;74.39
30875;BME280;17581;43.222;27.924;2024-02-16T05:20:11;101276.44;;;8.97;73.72
30875;BME280;17581;43.222;27.924;2024-02-16T05:22:44;101388.94;;;9.55;73.35
30875;BME280;17581;43.222;27.924;2024-02-16T05:25:12;101384.78;;;9.63;73.25
30875;BME280;17581;43.222;27.924;2024-02-16T05:27:37;101373.28;;;9.61;73.22
30875;BME280;17581;43.222;27.924;2024-02-16T05:30:08;101342.19;;;9.45;72.97
30875;BME280;17581;43.222;27.924;2024-02-16T05:32:35;101407.53;;;9.72;71.94
30875;BME280;17581;43.222;27.924;2024-02-16T05:35:05;101398.22;;;9.63;72.32
30875;BME280;17581;43.222;27.924;2024-02-16T05:37:44;101397.66;;;9.58;72.54
30875;BME280;17581;43.222;27.924;2024-02-16T05:40:12;101385.19;;;9.57;72.39
30875;BME280;17581;43.222;27.924;2024-02-16T05:42:48;101392.50;;;9.55;72.17
30875;BME280;17581;43.222;27.924;2024-02-16T05:45:14;101386.38;;;9.39;72.26
30875;BME280;17581;43.222;27.924;2024-02-16T05:47:44;101343.31;;;9.14;72.80
30875;BME280;17581;43.222;27.924;2024-02-16T05:50:11;101416.31;;;9.47;72.58
30875;BME280;17581;43.222;27.924;2024-02-16T05:52:38;101415.34;;;9.34;72.83
30875;BME280;17581;43.222;27.924;2024-02-16T05:55:05;101411.13;;;9.30;73.45
30875;BME280;17581;43.222;27.924;2024-02-16T05:57:30;101387.75;;;9.18;73.91
30875;BME280;17581;43.222;27.924;2024-02-16T05:59:56;101421.41;;;9.38;74.08
30875;BME280;17581;43.222;27.924;2024-02-16T06:02:21;101417.56;;;9.42;74.37
30875;BME280;17581;43.222;27.924;2024-02-16T06:04:50;101400.31;;;9.32;73.96
30875;BME280;17581;43.222;27.924;2024-02-16T06:07:16;101410.19;;;9.31;74.25
30875;BME280;17581;43.222;27.924;2024-02-16T06:09:41;101423.69;;;9.29;74.49
30875;BME280;17581;43.222;27.924;2024-02-16T06:12:07;101291.81;;;8.52;74.65
30875;BME280;17581;43.222;27.924;2024-02-16T06:14:35;101354.63;;;8.91;75.08
30875;BME280;17581;43.222;27.924;2024-02-16T06:17:02;101426.69;;;9.25;75.08
30875;BME280;17581;43.222;27.924;2024-02-16T06:19:28;101388.34;;;9.09;75.01
30875;BME280;17581;43.222;27.924;2024-02-16T06:21:54;101441.13;;;9.37;74.77
30875;BME280;17581;43.222;27.924;2024-02-16T06:24:23;101432.44;;;9.19;74.78
30875;BME280;17581;43.222;27.924;2024-02-16T06:26:49;101407.31;;;8.92;75.56
30875;BME280;17581;43.222;27.924;2024-02-16T06:29:17;101374.47;;;8.88;76.03
30875;BME280;17581;43.222;27.924;2024-02-16T06:31:42;101358.75;;;8.82;75.83
30875;BME280;17581;43.222;27.924;2024-02-16T06:34:08;101432.53;;;9.32;75.82
30875;BME280;17581;43.222;27.924;2024-02-16T06:36:34;101431.28;;;9.37;75.44
30875;BME280;17581;43.222;27.924;2024-02-16T06:38:59;101428.69;;;9.36;75.07
30875;BME280;17581;43.222;27.924;2024-02-16T06:41:25;101391.31;;;8.90;74.93
30875;BME280;17581;43.222;27.924;2024-02-16T06:43:51;101368.31;;;8.72;75.35
30875;BME280;17581;43.222;27.924;2024-02-16T06:46:16;101417.84;;;9.09;75.81
30875;BME280;17581;43.222;27.924;2024-02-16T06:48:42;101429.00;;;9.17;75.59
30875;BME280;17581;43.222;27.924;2024-02-16T06:51:07;101398.91;;;8.98;75.58
30875;BME280;17581;43.222;27.924;2024-02-16T06:53:33;101438.66;;;9.19;75.59
30875;BME280;17581;43.222;27.924;2024-02-16T06:55:59;101443.56;;;9.13;75.57
30875;BME280;17581;43.222;27.924;2024-02-16T06:58:24;101436.84;;;9.06;75.89
30875;BME280;17581;43.222;27.924;2024-02-16T07:00:50;101433.78;;;8.98;75.76
30875;BME280;17581;43.222;27.924;2024-02-16T07:03:15;101435.50;;;8.99;75.95
30875;BME280;17581;43.222;27.924;2024-02-16T07:05:41;101411.53;;;8.82;75.91
30875;BME280;17581;43.222;27.924;2024-02-16T07:08:06;101459.53;;;9.00;76.23
30875;BME280;17581;43.222;27.924;2024-02-16T07:10:33;101395.88;;;8.46;75.94
30875;BME280;17581;43.222;27.924;2024-02-16T07:12:59;101450.22;;;8.77;76.20
30875;BME280;17581;43.222;27.924;2024-02-16T07:15:25;101427.69;;;8.66;76.41
30875;BME280;17581;43.222;27.924;2024-02-16T07:17:53;101417.81;;;8.66;75.76
30875;BME280;17581;43.222;27.924;2024-02-16T07:20:18;101428.59;;;8.81;75.24
30875;BME280;17581;43.222;27.924;2024-02-16T07:22:44;101435.59;;;8.83;75.65
30875;BME280;17581;43.222;27.924;2024-02-16T07:25:12;101379.13;;;8.56;75.77
30875;BME280;17581;43.222;27.924;2024-02-16T07:27:38;101467.50;;;9.02;75.37
30875;BME280;17581;43.222;27.924;2024-02-16T07:30:04;101412.66;;;8.77;75.58
30875;BME280;17581;43.222;27.924;2024-02-16T07:32:30;101456.03;;;9.14;75.51
30875;BME280;17581;43.222;27.924;2024-02-16T07:34:56;101436.25;;;9.01;75.21
30875;BME280;17581;43.222;27.924;2024-02-16T07:37:21;101421.88;;;8.88;74.91
30875;BME280;17581;43.222;27.924;2024-02-16T07:39:47;101469.50;;;9.26;74.73
30875;BME280;17581;43.222;27.924;2024-02-16T07:42:12;101458.50;;;9.31;74.82
30875;BME280;17581;43.222;27.924;2024-02-16T07:44:39;101456.19;;;9.39;74.46
30875;BME280;17581;43.222;27.924;2024-02-16T07:47:05;101426.56;;;9.26;73.97
30875;BME280;17581;43.222;27.924;2024-02-16T07:49:30;101469.63;;;9.53;74.06
30875;BME280;17581;43.222;27.924;2024-02-16T07:51:56;101440.66;;;9.30;73.66
30875;BME280;17581;43.222;27.924;2024-02-16T07:54:23;101421.88;;;9.16;73.68
30875;BME280;17581;43.222;27.924;2024-02-16T07:56:48;101437.03;;;9.17;74.01
30875;BME280;17581;43.222;27.924;2024-02-16T07:59:14;101467.13;;;9.36;74.02
30875;BME280;17581;43.222;27.924;2024-02-16T08:01:40;101402.34;;;8.86;74.50
30875;BME280;17581;43.222;27.924;2024-02-16T08:04:05;101453.91;;;9.05;75.26
30875;BME280;17581;43.222;27.924;2024-02-16T08:06:31;101416.78;;;8.69;75.34
30875;BME280;17581;43.222;27.924;2024-02-16T08:08:57;101479.19;;;9.01;75.84
30875;BME280;17581;43.222;27.924;2024-02-16T08:11:22;101449.75;;;8.71;76.29
30875;BME280;17581;43.222;27.924;2024-02-16T08:13:48;101462.28;;;8.70;76.59
30875;BME280;17581;43.222;27.924;2024-02-16T08:16:14;101446.38;;;8.67;77.24
30875;BME280;17581;43.222;27.924;2024-02-16T08:18:39;101437.31;;;8.40;77.82
30875;BME280;17581;43.222;27.924;2024-02-16T08:21:05;101421.41;;;8.37;78.05
30875;BME280;17581;43.222;27.924;2024-02-16T08:23:31;101446.19;;;8.70;78.43
30875;BME280;17581;43.222;27.924;2024-02-16T08:25:57;101489.56;;;9.07;78.25
30875;BME280;17581;43.222;27.924;2024-02-16T08:28:23;101423.38;;;8.63;78.50
30875;BME280;17581;43.222;27.924;2024-02-16T08:30:50;101438.34;;;8.67;78.62
30875;BME280;17581;43.222;27.924;2024-02-16T08:33:15;101453.81;;;8.62;78.84
30875;BME280;17581;43.222;27.924;2024-02-16T08:35:41;101436.59;;;8.52;78.74
30875;BME280;17581;43.222;27.924;2024-02-16T08:38:06;101468.53;;;8.71;78.20
30875;BME280;17581;43.222;27.924;2024-02-16T08:40:37;101432.19;;;8.65;78.35
30875;BME280;17581;43.222;27.924;2024-02-16T08:43:03;101429.72;;;8.77;78.55
30875;BME280;17581;43.222;27.924;2024-02-16T08:45:30;101458.22;;;9.07;78.11
30875;BME280;17581;43.222;27.924;2024-02-16T08:47:56;101440.31;;;9.08;76.88
30875;BME280;17581;43.222;27.924;2024-02-16T08:50:22;101451.78;;;9.38;76.14
30875;BME280;17581;43.222;27.924;2024-02-16T08:52:49;101434.41;;;9.29;75.14
30875;BME280;17581;43.222;27.924;2024-02-16T08:55:15;101431.75;;;9.29;73.31
30875;BME280;17581;43.222;27.924;2024-02-16T08:57:41;101438.38;;;9.38;72.93
30875;BME280;17581;43.222;27.924;2024-02-16T09:00:07;101502.19;;;9.75;72.87
30875;BME280;17581;43.222;27.924;2024-02-16T09:02:33;101461.53;;;9.67;72.96
30875;BME280;17581;43.222;27.924;2024-02-16T09:04:58;101467.06;;;9.78;72.34
30875;BME280;17581;43.222;27.924;2024-02-16T09:07:24;101482.03;;;9.82;71.44
30875;BME280;17581;43.222;27.924;2024-02-16T09:09:51;101474.75;;;9.84;71.20
30875;BME280;17581;43.222;27.924;2024-02-16T09:12:17;101502.53;;;9.98;70.99
30875;BME280;17581;43.222;27.924;2024-02-16T09:14:42;101512.00;;;10.03;71.60
30875;BME280;17581;43.222;27.924;2024-02-16T09:17:08;101504.81;;;10.04;70.77
30875;BME280;17581;43.222;27.924;2024-02-16T09:19:33;101437.81;;;9.74;70.77
30875;BME280;17581;43.222;27.924;2024-02-16T09:21:59;101491.84;;;10.10;70.76
30875;BME280;17581;43.222;27.924;2024-02-16T09:24:28;101447.16;;;9.68;70.46
30875;BME280;17581;43.222;27.924;2024-02-16T09:26:55;101454.69;;;9.76;71.07
30875;BME280;17581;43.222;27.924;2024-02-16T09:29:21;101498.50;;;10.05;71.09
30875;BME280;17581;43.222;27.924;2024-02-16T09:31:49;101504.94;;;10.02;70.81
30875;BME280;17581;43.222;27.924;2024-02-16T09:34:16;101478.00;;;9.90;71.25
30875;BME280;17581;43.222;27.924;2024-02-16T09:36:42;101438.81;;;9.59;70.67
30875;BME280;17581;43.222;27.924;2024-02-16T09:39:08;101478.13;;;9.74;70.52
30875;BME280;17581;43.222;27.924;2024-02-16T09:41:34;101429.94;;;9.44;70.46
30875;BME280;17581;43.222;27.924;2024-02-16T09:44:02;101446.78;;;9.46;70.81
30875;BME280;17581;43.222;27.924;2024-02-16T09:46:30;101478.44;;;9.55;70.99
30875;BME280;17581;43.222;27.924;2024-02-16T09:48:56;101429.34;;;9.39;71.93
30875;BME280;17581;43.222;27.924;2024-02-16T09:51:24;101478.38;;;9.83;71.51
30875;BME280;17581;43.222;27.924;2024-02-16T09:53:50;101482.03;;;9.82;70.63
30875;BME280;17581;43.222;27.924;2024-02-16T09:56:20;101408.25;;;9.47;70.43
30875;BME280;17581;43.222;27.924;2024-02-16T09:58:46;101423.44;;;9.61;70.39
30875;BME280;17581;43.222;27.924;2024-02-16T10:01:22;101469.53;;;9.96;69.97
30875;BME280;17581;43.222;27.924;2024-02-16T10:03:49;101502.16;;;10.18;70.34
30875;BME280;17581;43.222;27.924;2024-02-16T10:06:16;101520.16;;;10.30;69.82
30875;BME280;17581;43.222;27.924;2024-02-16T10:08:54;101466.25;;;10.05;69.02
30875;BME280;17581;43.222;27.924;2024-02-16T10:11:24;101434.44;;;9.84;68.82
30875;BME280;17581;43.222;27.924;2024-02-16T10:14:03;101388.06;;;9.68;68.57
30875;BME280;17581;43.222;27.924;2024-02-16T10:16:30;101474.47;;;10.16;68.11
30875;BME280;17581;43.222;27.924;2024-02-16T10:19:06;101486.75;;;10.20;68.41
30875;BME280;17581;43.222;27.924;2024-02-16T10:21:32;101467.78;;;9.95;68.91
30875;BME280;17581;43.222;27.924;2024-02-16T10:24:05;101498.91;;;9.99;69.44
30875;BME280;17581;43.222;27.924;2024-02-16T10:26:33;101496.34;;;10.10;69.56
30875;BME280;17581;43.222;27.924;2024-02-16T10:29:03;101475.56;;;9.99;69.73
30875;BME280;17581;43.222;27.924;2024-02-16T10:31:30;101463.19;;;9.97;69.63
30875;BME280;17581;43.222;27.924;2024-02-16T10:34:00;101481.97;;;10.11;69.39
30875;BME280;17581;43.222;27.924;2024-02-16T10:36:36;101457.44;;;9.89;70.01
30875;BME280;17581;43.222;27.924;2024-02-16T10:39:10;101468.94;;;10.05;69.80
30875;BME280;17581;43.222;27.924;2024-02-16T10:41:41;101486.38;;;10.12;69.62
30875;BME280;17581;43.222;27.924;2024-02-16T10:44:07;101489.00;;;10.13;69.69
30875;BME280;17581;43.222;27.924;2024-02-16T10:46:36;101441.72;;;9.82;69.84
30875;BME280;17581;43.222;27.924;2024-02-16T10:49:03;101469.00;;;10.03;70.48
30875;BME280;17581;43.222;27.924;2024-02-16T10:54:04;101453.94;;;9.74;70.89
30875;BME280;17581;43.222;27.924;2024-02-16T10:56:39;101496.50;;;9.94;71.00
30875;BME280;17581;43.222;27.924;2024-02-16T10:59:09;101478.59;;;9.80;71.32
30875;BME280;17581;43.222;27.924;2024-02-16T11:01:40;101480.16;;;9.97;71.26
30875;BME280;17581;43.222;27.924;2024-02-16T11:04:07;101466.56;;;9.86;71.25
30875;BME280;17581;43.222;27.924;2024-02-16T11:06:51;101496.75;;;10.04;71.45
30875;BME280;17581;43.222;27.924;2024-02-16T11:09:30;101474.78;;;9.97;70.71
30875;BME280;17581;43.222;27.924;2024-02-16T11:12:00;101494.38;;;10.13;70.21
30875;BME280;17581;43.222;27.924;2024-02-16T11:14:40;101490.41;;;10.19;70.58
30875;BME280;17581;43.222;27.924;2024-02-16T11:17:10;101414.66;;;9.59;69.99
30875;BME280;17581;43.222;27.924;2024-02-16T11:19:36;101443.47;;;9.69;69.99
30875;BME280;17581;43.222;27.924;2024-02-16T11:22:05;101490.69;;;9.88;69.99
30875;BME280;17581;43.222;27.924;2024-02-16T11:24:37;101489.81;;;9.87;69.53
30875;BME280;17581;43.222;27.924;2024-02-16T11:27:08;101416.31;;;9.33;69.29
30875;BME280;17581;43.222;27.924;2024-02-16T11:29:38;101403.38;;;9.25;69.25
30875;BME280;17581;43.222;27.924;2024-02-16T11:32:05;101430.69;;;9.46;69.39
30875;BME280;17581;43.222;27.924;2024-02-16T11:34:32;101435.66;;;9.52;69.08
30875;BME280;17581;43.222;27.924;2024-02-16T11:36:59;101485.53;;;9.97;68.80
30875;BME280;17581;43.222;27.924;2024-02-16T11:39:26;101481.50;;;10.04;68.35
30875;BME280;17581;43.222;27.924;2024-02-16T11:42:06;101442.13;;;9.76;67.95
30875;BME280;17581;43.222;27.924;2024-02-16T11:44:33;101463.69;;;9.89;67.75
30875;BME280;17581;43.222;27.924;2024-02-16T11:47:00;101459.19;;;9.90;68.05
30875;BME280;17581;43.222;27.924;2024-02-16T11:49:28;101416.50;;;9.44;68.07
30875;BME280;17581;43.222;27.924;2024-02-16T11:51:53;101461.44;;;9.69;68.81
30875;BME280;17581;43.222;27.924;2024-02-16T11:54:19;101455.22;;;9.68;68.82
30875;BME280;17581;43.222;27.924;2024-02-16T11:56:45;101391.78;;;9.25;69.00
30875;BME280;17581;43.222;27.924;2024-02-16T11:59:14;101391.88;;;9.23;68.92
30875;BME280;17581;43.222;27.924;2024-02-16T12:01:56;101480.28;;;9.81;69.12
30875;BME280;17581;43.222;27.924;2024-02-16T12:04:26;101477.59;;;9.81;68.93
30875;BME280;17581;43.222;27.924;2024-02-16T12:06:57;101479.06;;;9.87;68.74
30875;BME280;17581;43.222;27.924;2024-02-16T12:09:23;101496.25;;;9.84;68.35
30875;BME280;17581;43.222;27.924;2024-02-16T12:11:51;101452.63;;;9.53;68.80
30875;BME280;17581;43.222;27.924;2024-02-16T12:14:18;101482.25;;;9.65;69.40
30875;BME280;17581;43.222;27.924;2024-02-16T12:16:55;101478.19;;;9.72;69.96
30875;BME280;17581;43.222;27.924;2024-02-16T12:19:21;101396.91;;;9.42;70.01
30875;BME280;17581;43.222;27.924;2024-02-16T12:21:54;101470.69;;;9.92;69.96
30875;BME280;17581;43.222;27.924;2024-02-16T12:24:23;101490.50;;;10.03;69.06
30875;BME280;17581;43.222;27.924;2024-02-16T12:26:49;101451.41;;;9.85;68.57
30875;BME280;17581;43.222;27.924;2024-02-16T12:29:15;101476.06;;;9.92;68.83
30875;BME280;17581;43.222;27.924;2024-02-16T12:31:45;101432.88;;;9.54;69.06
30875;BME280;17581;43.222;27.924;2024-02-16T12:34:13;101417.56;;;9.42;69.14
30875;BME280;17581;43.222;27.924;2024-02-16T12:36:39;101486.13;;;9.88;69.46
30875;BME280;17581;43.222;27.924;2024-02-16T12:39:06;101495.66;;;9.94;69.65
30875;BME280;17581;43.222;27.924;2024-02-16T12:41:35;101435.81;;;9.63;70.02
30875;BME280;17581;43.222;27.924;2024-02-16T12:44:04;101492.19;;;9.92;70.17
30875;BME280;17581;43.222;27.924;2024-02-16T12:46:31;101421.69;;;9.47;69.92
30875;BME280;17581;43.222;27.924;2024-02-16T12:48:56;101420.13;;;9.43;69.34
30875;BME280;17581;43.222;27.924;2024-02-16T12:51:22;101457.31;;;9.63;69.48